Time;durP1;ratioP1;P1;durP2;ratioP2;P2;SDS_P1;SDS_P2;PMS_P1;PMS_P2;Temp;Humidity;BMP_temperature;BMP_pressure;BME280_temperature;BME280_humidity;BME280_pressure;Samples;Min_cycle;Max_cycle;Signal;HPM_P1;HPM_P2
2021/07/28 00:00:39;;;;;;;4.55;3.67;;;;;;;-148.56;100.00;61375.16;5002541;28;20029;-33
2021/07/28 00:04:03;;;;;;;4.38;3.13;;;;;;;-148.56;100.00;61375.16;4989773;28;20095;-34
2021/07/28 00:07:27;;;;;;;5.97;3.42;;;;;;;-148.56;100.00;61375.16;4988376;28;20716;-30
2021/07/28 00:10:50;;;;;;;4.75;3.65;;;;;;;-148.56;100.00;61375.16;4989087;28;20657;-31
2021/07/28 00:14:14;;;;;;;4.63;3.40;;;;;;;-148.56;100.00;61375.16;4985472;28;20156;-31
2021/07/28 00:17:45;;;;;;;4.63;3.38;;;;;;;-148.56;100.00;61375.16;4986480;28;20397;-32
2021/07/28 00:24:51;;;;;;;6.28;3.60;;;;;;;-148.56;100.00;61375.16;4990046;28;20032;-31
2021/07/28 00:28:15;;;;;;;5.85;3.60;;;;;;;-148.56;100.00;61375.16;4989180;28;20049;-32
2021/07/28 00:31:39;;;;;;;4.35;3.22;;;;;;;-148.56;100.00;61375.16;4987387;28;20038;-32
2021/07/28 00:35:03;;;;;;;5.00;3.58;;;;;;;-148.56;100.00;61375.16;4996990;28;20060;-31
2021/07/28 00:38:27;;;;;;;6.28;3.47;;;;;;;-148.56;100.00;61375.16;5002044;28;20072;-33
2021/07/28 00:41:51;;;;;;;7.65;3.65;;;;;;;-148.56;100.00;61375.16;4984625;28;20038;-33
2021/07/28 00:45:15;;;;;;;6.38;3.50;;;;;;;-148.56;100.00;61375.16;4991984;28;20026;-32
2021/07/28 00:48:39;;;;;;;5.53;3.10;;;;;;;-148.56;100.00;61375.16;4988591;28;20057;-32
2021/07/28 00:52:05;;;;;;;6.57;3.42;;;;;;;-148.56;100.00;61375.16;4984085;28;20321;-32
2021/07/28 00:55:29;;;;;;;4.68;3.40;;;;;;;-148.56;100.00;61375.16;4992484;28;20042;-34
2021/07/28 00:58:54;;;;;;;4.47;3.30;;;;;;;-148.56;100.00;61375.16;4982081;28;20088;-32
2021/07/28 01:02:18;;;;;;;4.30;3.22;;;;;;;-148.56;100.00;61375.16;4997721;28;20037;-32
2021/07/28 01:05:42;;;;;;;3.38;3.00;;;;;;;-148.56;100.00;61375.16;4983160;28;20886;-30
2021/07/28 01:09:06;;;;;;;6.40;3.33;;;;;;;-148.56;100.00;61375.16;5005097;28;20037;-32
2021/07/28 01:12:32;;;;;;;6.10;3.30;;;;;;;-148.56;100.00;61375.16;4987607;28;20108;-32
2021/07/28 01:15:58;;;;;;;5.57;3.20;;;;;;;-148.56;100.00;61375.16;5002199;28;20029;-31
2021/07/28 01:19:23;;;;;;;3.30;2.78;;;;;;;-148.56;100.00;61375.16;4980900;28;20033;-33
2021/07/28 01:22:47;;;;;;;6.38;3.08;;;;;;;-148.56;100.00;61375.16;5000674;28;20108;-32
2021/07/28 01:26:10;;;;;;;3.97;3.13;;;;;;;-148.56;100.00;61375.16;4998800;28;20037;-31
2021/07/28 01:29:35;;;;;;;4.35;3.08;;;;;;;-148.56;100.00;61375.16;4990322;28;20099;-33
2021/07/28 01:33:02;;;;;;;5.90;3.20;;;;;;;-148.56;100.00;61375.16;5002816;28;20038;-35
2021/07/28 01:36:26;;;;;;;3.28;2.75;;;;;;;-148.56;100.00;61375.16;5004949;28;20057;-33
2021/07/28 01:39:50;;;;;;;3.33;3.00;;;;;;;-148.56;100.00;61375.16;4993742;28;20120;-31
2021/07/28 01:43:14;;;;;;;4.10;3.13;;;;;;;-148.56;100.00;61375.16;4992466;28;20038;-32
2021/07/28 01:46:38;;;;;;;3.50;2.85;;;;;;;-148.56;100.00;61375.16;4986480;28;20488;-31
2021/07/28 01:50:02;;;;;;;3.17;2.70;;;;;;;-148.56;100.00;61375.16;4989559;28;20092;-32
2021/07/28 01:53:03;;;;;;;3.20;2.90;;;;;;;-148.56;100.00;61375.16;4993752;28;20471;-31
2021/07/28 01:55:58;;;;;;;6.22;2.67;;;;;;;-148.56;100.00;61375.16;4987551;28;20584;-33
2021/07/28 01:59:23;;;;;;;3.58;3.17;;;;;;;-148.56;100.00;61375.16;4983252;28;20026;-31
2021/07/28 02:02:47;;;;;;;3.95;2.60;;;;;;;-148.56;100.00;61375.16;4983851;28;20030;-33
2021/07/28 02:06:11;;;;;;;5.60;2.90;;;;;;;-148.56;100.00;61375.16;4987004;28;20090;-32
2021/07/28 02:09:35;;;;;;;3.63;2.67;;;;;;;-148.56;100.00;61375.16;4985605;28;20069;-32
2021/07/28 02:12:59;;;;;;;6.20;3.03;;;;;;;-148.56;100.00;61375.16;4990496;28;20080;-32
2021/07/28 02:16:22;;;;;;;5.30;2.85;;;;;;;-148.56;100.00;61375.16;4984930;28;20555;-31
2021/07/28 02:19:46;;;;;;;4.38;2.88;;;;;;;-148.56;100.00;61375.16;4983498;28;20032;-32
2021/07/28 02:23:10;;;;;;;6.47;3.10;;;;;;;-148.56;100.00;61375.16;4986900;28;20097;-33
2021/07/28 02:26:34;;;;;;;4.55;2.90;;;;;;;-148.56;100.00;61375.16;4985806;28;20066;-33
2021/07/28 02:29:58;;;;;;;6.65;3.05;;;;;;;-148.56;100.00;61375.16;4988757;28;20034;-31
2021/07/28 02:33:22;;;;;;;3.10;2.50;;;;;;;-148.56;100.00;61375.16;4983371;28;20080;-32
2021/07/28 02:36:46;;;;;;;5.35;3.03;;;;;;;-148.56;100.00;61375.16;4986573;28;20026;-33
2021/07/28 02:40:10;;;;;;;4.80;3.00;;;;;;;-148.56;100.00;61375.16;4987033;28;20639;-31
2021/07/28 02:43:34;;;;;;;7.60;3.00;;;;;;;-148.56;100.00;61375.16;4985721;28;20026;-31
2021/07/28 02:46:58;;;;;;;5.88;2.85;;;;;;;-148.56;100.00;61375.16;4986848;28;20030;-31
2021/07/28 02:50:22;;;;;;;3.70;2.65;;;;;;;-148.56;100.00;61375.16;4986739;28;20040;-33
2021/07/28 02:53:46;;;;;;;5.50;2.70;;;;;;;-148.56;100.00;61375.16;4987158;28;20039;-30
2021/07/28 02:57:09;;;;;;;5.97;3.08;;;;;;;-148.56;100.00;61375.16;4985687;28;20026;-32
2021/07/28 03:00:34;;;;;;;5.05;2.63;;;;;;;-148.56;100.00;61375.16;4986594;28;20030;-31
2021/07/28 03:03:57;;;;;;;5.75;2.75;;;;;;;-148.56;100.00;61375.16;4987819;28;20536;-34
2021/07/28 03:07:21;;;;;;;4.72;2.60;;;;;;;-148.56;100.00;61375.16;4985829;28;20034;-32
2021/07/28 03:10:45;;;;;;;3.78;2.70;;;;;;;-148.56;100.00;61375.16;4988674;28;20055;-33
2021/07/28 03:14:09;;;;;;;3.45;2.60;;;;;;;-148.56;100.00;61375.16;4985416;28;20105;-32
2021/07/28 03:17:33;;;;;;;6.57;2.58;;;;;;;-148.56;100.00;61375.16;4980401;28;20038;-31
2021/07/28 03:20:57;;;;;;;8.07;2.70;;;;;;;-148.56;100.00;61375.16;4982336;28;20034;-33
2021/07/28 03:24:21;;;;;;;4.05;2.60;;;;;;;-148.56;100.00;61375.16;4981915;28;20030;-32
2021/07/28 03:27:45;;;;;;;5.40;2.80;;;;;;;-148.56;100.00;61375.16;4986448;28;20511;-32
2021/07/28 03:31:09;;;;;;;4.18;2.40;;;;;;;-148.56;100.00;61375.16;4985603;28;20038;-33
2021/07/28 03:34:32;;;;;;;3.13;2.58;;;;;;;-148.56;100.00;61375.16;4993351;28;20034;-32
2021/07/28 03:37:56;;;;;;;4.15;2.67;;;;;;;-148.56;100.00;61375.16;4978480;28;20034;-29
2021/07/28 03:41:20;;;;;;;4.68;2.42;;;;;;;-148.56;100.00;61375.16;4986171;28;20037;-31
2021/07/28 03:44:44;;;;;;;4.00;2.80;;;;;;;-148.56;100.00;61375.16;4988436;28;20519;-32
2021/07/28 03:48:08;;;;;;;4.72;2.72;;;;;;;-148.56;100.00;61375.16;4986111;28;20092;-31
2021/07/28 03:51:32;;;;;;;4.22;2.90;;;;;;;-148.56;100.00;61375.16;4981907;28;20045;-33
2021/07/28 03:54:56;;;;;;;3.78;2.75;;;;;;;-148.56;100.00;61375.16;4994325;28;20030;-32
2021/07/28 03:58:19;;;;;;;3.20;2.70;;;;;;;-148.56;100.00;61375.16;4982751;28;20030;-32
2021/07/28 04:01:43;;;;;;;2.85;2.42;;;;;;;-148.56;100.00;61375.16;4982837;28;20438;-32
2021/07/28 04:05:07;;;;;;;4.20;2.47;;;;;;;-148.56;100.00;61375.16;4984045;28;20029;-30
2021/07/28 04:08:31;;;;;;;3.65;2.60;;;;;;;-148.56;100.00;61375.16;4987018;28;20029;-32
2021/07/28 04:11:55;;;;;;;4.63;2.65;;;;;;;-148.56;100.00;61375.16;4993039;28;20636;-31
2021/07/28 04:15:19;;;;;;;4.88;2.38;;;;;;;-148.56;100.00;61375.16;4985862;28;20041;-32
2021/07/28 04:18:43;;;;;;;3.22;2.47;;;;;;;-148.56;100.00;61375.16;4984140;28;20034;-31
2021/07/28 04:22:07;;;;;;;2.92;2.47;;;;;;;-148.56;100.00;61375.16;4986333;28;20350;-31
2021/07/28 04:25:31;;;;;;;6.03;2.63;;;;;;;-148.56;100.00;61375.16;4981410;28;20149;-31
2021/07/28 04:28:54;;;;;;;6.72;2.58;;;;;;;-148.56;100.00;61375.16;4988637;28;20022;-32
2021/07/28 04:32:18;;;;;;;4.32;2.75;;;;;;;-148.56;100.00;61375.16;4989377;28;20038;-33
2021/07/28 04:35:42;;;;;;;6.43;2.58;;;;;;;-148.56;100.00;61375.16;4988596;28;20029;-32
2021/07/28 04:39:06;;;;;;;4.10;2.45;;;;;;;-148.56;100.00;61375.16;5004303;28;20037;-32
2021/07/28 04:42:30;;;;;;;6.55;2.63;;;;;;;-148.56;100.00;61375.16;4989009;28;20478;-31
2021/07/28 04:45:58;;;;;;;2.70;2.45;;;;;;;-148.56;100.00;61375.16;4991165;28;20030;-31
2021/07/28 04:49:22;;;;;;;3.33;2.30;;;;;;;-148.56;100.00;61375.16;4998617;28;20057;-33
2021/07/28 04:52:46;;;;;;;4.22;2.25;;;;;;;-148.56;100.00;61375.16;4984064;28;20026;-30
2021/07/28 04:56:10;;;;;;;5.03;2.50;;;;;;;-148.56;100.00;61375.16;4984890;28;20036;-33
2021/07/28 04:59:34;;;;;;;3.67;2.38;;;;;;;-148.56;100.00;61375.16;4988892;28;20042;-34
2021/07/28 05:02:57;;;;;;;4.43;2.55;;;;;;;-148.56;100.00;61375.16;4986391;28;20652;-32
2021/07/28 05:06:21;;;;;;;4.38;2.42;;;;;;;-148.56;100.00;61375.16;4988289;28;20034;-32
2021/07/28 05:09:45;;;;;;;5.47;2.88;;;;;;;-148.56;100.00;61375.16;4990125;28;20080;-31
2021/07/28 05:13:09;;;;;;;3.75;2.60;;;;;;;-148.56;100.00;61375.16;4986543;28;20053;-31
2021/07/28 05:16:33;;;;;;;5.57;2.40;;;;;;;-148.56;100.00;61375.16;4989322;28;20154;-30
2021/07/28 05:19:57;;;;;;;3.95;2.47;;;;;;;-148.56;100.00;61375.16;4989200;28;20026;-32
2021/07/28 05:23:21;;;;;;;4.78;2.50;;;;;;;-148.56;100.00;61375.16;4987349;28;20031;-32
2021/07/28 05:26:45;;;;;;;5.47;2.33;;;;;;;-148.56;100.00;61375.16;4981644;28;20037;-29
2021/07/28 05:30:09;;;;;;;4.03;2.78;;;;;;;-148.56;100.00;61375.16;4987909;28;20038;-31
2021/07/28 05:33:33;;;;;;;7.65;2.80;;;;;;;-148.56;100.00;61375.16;5000230;28;20604;-32
2021/07/28 05:36:57;;;;;;;5.50;2.63;;;;;;;-148.56;100.00;61375.16;4986966;28;20034;-34
2021/07/28 05:40:21;;;;;;;4.47;2.80;;;;;;;-148.56;100.00;61375.16;4982983;28;20026;-34
2021/07/28 05:43:45;;;;;;;5.30;2.60;;;;;;;-148.56;100.00;61375.16;4989303;28;20037;-33
2021/07/28 05:47:09;;;;;;;3.90;2.50;;;;;;;-148.56;100.00;61375.16;4987912;28;20395;-30
2021/07/28 05:50:33;;;;;;;5.00;2.40;;;;;;;-148.56;100.00;61375.16;4986998;28;20995;-31
2021/07/28 05:53:57;;;;;;;7.82;2.80;;;;;;;-148.56;100.00;61375.16;4980323;28;20038;-31
2021/07/28 05:57:21;;;;;;;6.97;2.58;;;;;;;-148.56;100.00;61375.16;4988009;28;20072;-31
2021/07/28 06:00:45;;;;;;;13.57;2.75;;;;;;;-148.56;100.00;61375.16;4983167;28;20393;-31
2021/07/28 06:04:07;;;;;;;5.80;2.80;;;;;;;-148.56;100.00;61375.16;4986667;28;20034;-30
2021/07/28 06:07:31;;;;;;;;;;;;;;;-148.56;100.00;61375.16;4987652;28;20124;-32
2021/07/28 06:10:54;;;;;;;6.43;2.80;;;;;;;-148.56;100.00;61375.16;4984929;28;20049;-30
2021/07/28 06:14:18;;;;;;;9.80;2.90;;;;;;;-148.56;100.00;61375.16;4985926;28;20037;-33
2021/07/28 06:17:42;;;;;;;5.32;2.60;;;;;;;-148.56;100.00;61375.16;4988007;28;20038;-33
2021/07/28 06:21:06;;;;;;;5.50;2.65;;;;;;;-148.56;100.00;61375.16;4988955;28;20053;-31
2021/07/28 06:24:30;;;;;;;3.95;2.70;;;;;;;-148.56;100.00;61375.16;5001925;28;20069;-31
2021/07/28 06:27:54;;;;;;;3.35;2.70;;;;;;;-148.56;100.00;61375.16;4979752;28;20045;-30
2021/07/28 06:31:18;;;;;;;4.82;2.80;;;;;;;-148.56;100.00;61375.16;4984697;28;20029;-33
2021/07/28 06:34:42;;;;;;;6.75;2.70;;;;;;;-148.56;100.00;61375.16;4980601;28;20038;-31
2021/07/28 06:38:06;;;;;;;4.68;2.50;;;;;;;-148.56;100.00;61375.16;4985987;28;20041;-30
2021/07/28 06:41:30;;;;;;;3.95;2.75;;;;;;;-148.56;100.00;61375.16;4980507;28;20030;-32
2021/07/28 06:44:53;;;;;;;3.03;2.38;;;;;;;-148.56;100.00;61375.16;4989165;28;20109;-31
2021/07/28 06:48:17;;;;;;;5.75;2.60;;;;;;;-148.56;100.00;61375.16;4983880;28;20043;-31
2021/07/28 06:51:41;;;;;;;8.98;2.65;;;;;;;-148.56;100.00;61375.16;4980654;28;20038;-32
2021/07/28 06:55:05;;;;;;;11.93;3.70;;;;;;;-148.56;100.00;61375.16;4982562;28;20038;-32
2021/07/28 06:58:29;;;;;;;12.13;3.80;;;;;;;-148.56;100.00;61375.16;4980436;28;22156;-31
2021/07/28 07:01:53;;;;;;;13.98;3.95;;;;;;;-148.56;100.00;61375.16;4983919;28;20125;-30
2021/07/28 07:05:17;;;;;;;8.15;3.65;;;;;;;-148.56;100.00;61375.16;4985417;28;20030;-32
2021/07/28 07:08:41;;;;;;;15.80;4.22;;;;;;;-148.56;100.00;61375.16;4979715;28;20108;-33
2021/07/28 07:12:05;;;;;;;12.23;3.97;;;;;;;-148.56;100.00;61375.16;4971970;28;20129;-34
2021/07/28 07:15:28;;;;;;;13.13;4.40;;;;;;;-148.56;100.00;61375.16;4980788;28;20049;-31
2021/07/28 07:18:52;;;;;;;7.40;4.13;;;;;;;-148.56;100.00;61375.16;4981643;28;20050;-33
2021/07/28 07:22:16;;;;;;;11.40;4.13;;;;;;;-148.56;100.00;61375.16;4982586;28;20026;-32
2021/07/28 07:25:40;;;;;;;12.05;4.68;;;;;;;-148.56;100.00;61375.16;4998126;28;20112;-33
2021/07/28 07:29:04;;;;;;;13.30;4.63;;;;;;;-148.56;100.00;61375.16;4985250;28;20492;-33
2021/07/28 07:32:29;;;;;;;15.73;4.82;;;;;;;-148.56;100.00;61375.16;4980973;28;20103;-36
2021/07/28 07:35:53;;;;;;;11.13;4.60;;;;;;;-148.56;100.00;61375.16;4980659;28;20097;-31
2021/07/28 07:39:17;;;;;;;9.38;4.78;;;;;;;-148.56;100.00;61375.16;4978141;28;20127;-30
2021/07/28 07:42:41;;;;;;;11.40;4.80;;;;;;;-148.56;100.00;61375.16;4978840;28;20824;-35
2021/07/28 07:45:55;;;;;;;7.63;4.57;;;;;;;-148.56;100.00;61375.16;4982165;28;20034;-31
2021/07/28 07:49:18;;;;;;;6.95;4.47;;;;;;;-148.56;100.00;61375.16;4982011;28;20107;-30
2021/07/28 07:52:42;;;;;;;8.32;4.20;;;;;;;-148.56;100.00;61375.16;4978873;28;20392;-31
2021/07/28 07:56:06;;;;;;;9.15;4.63;;;;;;;-148.56;100.00;61375.16;4981117;28;20034;-31
2021/07/28 07:59:31;;;;;;;6.53;4.15;;;;;;;-148.56;100.00;61375.16;4983285;28;20577;-30
2021/07/28 08:02:55;;;;;;;10.38;4.25;;;;;;;-148.56;100.00;61375.16;4983297;28;20045;-29
2021/07/28 08:06:18;;;;;;;8.23;4.20;;;;;;;-148.56;100.00;61375.16;4983345;28;20116;-31
2021/07/28 08:09:42;;;;;;;8.85;4.40;;;;;;;-148.56;100.00;61375.16;4985125;28;20045;-33
2021/07/28 08:13:06;;;;;;;10.02;4.15;;;;;;;-148.56;100.00;61375.16;4983760;28;20599;-33
2021/07/28 08:16:30;;;;;;;11.05;4.38;;;;;;;-148.56;100.00;61375.16;4983950;28;20040;-31
2021/07/28 08:19:54;;;;;;;6.10;3.97;;;;;;;-148.56;100.00;61375.16;4981461;28;20040;-30
2021/07/28 08:23:18;;;;;;;5.60;4.65;;;;;;;-148.56;100.00;61375.16;4990246;28;20279;-37
2021/07/28 08:26:42;;;;;;;11.82;4.50;;;;;;;-148.56;100.00;61375.16;4981900;28;20026;-32
2021/07/28 08:30:06;;;;;;;9.02;4.90;;;;;;;-148.56;100.00;61375.16;4981551;28;20523;-33
2021/07/28 08:33:30;;;;;;;9.05;4.60;;;;;;;-148.56;100.00;61375.16;4982828;28;20117;-31
2021/07/28 08:36:54;;;;;;;8.45;4.88;;;;;;;-148.56;100.00;61375.16;4979936;28;20726;-33
2021/07/28 08:40:18;;;;;;;6.25;4.75;;;;;;;-148.56;100.00;61375.16;4991821;28;20792;-31
2021/07/28 08:43:50;;;;;;;6.93;4.43;;;;;;;-148.56;100.00;61375.16;4989429;28;20049;-31
2021/07/28 08:47:14;;;;;;;;;;;;;;;-148.56;100.00;61375.16;4987955;28;20048;-33
2021/07/28 08:50:38;;;;;;;20.50;5.97;;;;;;;-148.56;100.00;61375.16;4996041;28;19913;-31
2021/07/28 08:54:02;;;;;;;14.68;5.38;;;;;;;-148.56;100.00;61375.16;4986845;28;20131;-34
2021/07/28 08:57:26;;;;;;;9.75;4.75;;;;;;;-148.56;100.00;61375.16;4997615;28;20084;-32
2021/07/28 09:00:53;;;;;;;6.68;4.80;;;;;;;-148.56;100.00;61375.16;4990798;28;20041;-30
2021/07/28 09:04:17;;;;;;;10.88;4.82;;;;;;;-148.56;100.00;61375.16;5004954;28;20040;-35
2021/07/28 09:07:41;;;;;;;23.65;4.85;;;;;;;-148.56;100.00;61375.16;4998626;28;20403;-29
2021/07/28 09:11:09;;;;;;;7.20;4.78;;;;;;;-148.56;100.00;61375.16;4989014;28;20042;-30
2021/07/28 09:14:37;;;;;;;6.40;4.50;;;;;;;-148.56;100.00;61375.16;4988853;28;20042;-34
2021/07/28 09:18:32;;;;;;;7.60;3.78;;;;;;;-148.56;100.00;61375.16;4990303;28;20026;-36
2021/07/28 09:22:03;;;;;;;6.22;4.35;;;;;;;-148.56;100.00;61375.16;4989801;28;20034;-37
2021/07/28 09:25:32;;;;;;;6.93;3.80;;;;;;;-148.56;100.00;61375.16;4988055;28;20393;-36
2021/07/28 09:29:06;;;;;;;12.75;4.93;;;;;;;-148.56;100.00;61375.16;4989308;28;20030;-33
2021/07/28 09:32:35;;;;;;;11.05;4.70;;;;;;;-148.56;100.00;61375.16;4986461;28;20022;-31
2021/07/28 09:36:13;;;;;;;8.63;4.00;;;;;;;-148.56;100.00;61375.16;4991277;28;20038;-31
2021/07/28 09:39:38;;;;;;;8.00;4.50;;;;;;;-148.56;100.00;61375.16;5006415;28;20069;-38
2021/07/28 09:43:05;;;;;;;7.07;4.35;;;;;;;-148.56;100.00;61375.16;4988224;28;21056;-34
2021/07/28 09:46:31;;;;;;;7.60;4.45;;;;;;;-148.56;100.00;61375.16;4988927;28;20912;-33
2021/07/28 09:50:02;;;;;;;6.95;4.00;;;;;;;-148.56;100.00;61375.16;4988047;28;20032;-35
2021/07/28 09:53:28;;;;;;;5.20;4.07;;;;;;;-148.56;100.00;61375.16;4987092;28;20135;-31
2021/07/28 09:56:55;;;;;;;7.35;4.55;;;;;;;-148.56;100.00;61375.16;4997082;28;20511;-36
2021/07/28 10:00:19;;;;;;;9.27;4.20;;;;;;;-148.56;100.00;61375.16;4988956;28;20092;-33
2021/07/28 10:03:43;;;;;;;7.38;4.13;;;;;;;-148.56;100.00;61375.16;4986593;28;20049;-33
2021/07/28 10:07:06;;;;;;;9.32;4.53;;;;;;;-148.56;100.00;61375.16;5004392;28;20161;-31
2021/07/28 10:10:31;;;;;;;7.13;4.40;;;;;;;-148.56;100.00;61375.16;4996070;28;20455;-34
2021/07/28 10:13:55;;;;;;;7.25;4.03;;;;;;;-148.56;100.00;61375.16;5004547;28;20033;-34
2021/07/28 10:17:19;;;;;;;6.68;3.78;;;;;;;-148.56;100.00;61375.16;4991615;28;20784;-31
2021/07/28 10:20:43;;;;;;;6.40;4.07;;;;;;;-148.56;100.00;61375.16;4988724;28;20041;-35
2021/07/28 10:24:07;;;;;;;7.32;3.80;;;;;;;-148.56;100.00;61375.16;4990275;28;20025;-33
2021/07/28 10:27:38;;;;;;;8.93;3.85;;;;;;;-148.56;100.00;61375.16;4987531;28;20034;-33
2021/07/28 10:31:12;;;;;;;5.22;3.83;;;;;;;-148.56;100.00;61375.16;5004594;28;20049;-32
2021/07/28 10:34:43;;;;;;;9.65;3.83;;;;;;;-148.56;100.00;61375.16;4994526;28;20038;-33
2021/07/28 10:38:18;;;;;;;6.20;4.05;;;;;;;-148.56;100.00;61375.16;5002488;28;20149;-31
2021/07/28 10:41:48;;;;;;;13.45;4.35;;;;;;;-148.56;100.00;61375.16;4989796;28;20061;-34
2021/07/28 10:45:18;;;;;;;5.35;3.95;;;;;;;-148.56;100.00;61375.16;4985991;28;20053;-32
2021/07/28 10:48:41;;;;;;;7.88;3.67;;;;;;;-148.56;100.00;61375.16;4994946;28;20073;-30
2021/07/28 10:52:08;;;;;;;6.15;3.85;;;;;;;-148.56;100.00;61375.16;4989596;28;20030;-33
2021/07/28 10:55:44;;;;;;;5.32;3.45;;;;;;;-148.56;100.00;61375.16;4985620;28;20037;-33
2021/07/28 10:59:40;;;;;;;6.97;4.25;;;;;;;-148.56;100.00;61375.16;5002776;28;20049;-31
2021/07/28 11:02:48;;;;;;;4.78;3.63;;;;;;;-148.56;100.00;61375.16;4962941;28;20049;-30
2021/07/28 11:06:18;;;;;;;6.20;3.70;;;;;;;-148.56;100.00;61375.16;4985064;28;20425;-32
2021/07/28 11:09:42;;;;;;;4.82;3.50;;;;;;;-148.56;100.00;61375.16;4986482;28;20641;-34
2021/07/28 11:13:09;;;;;;;11.80;4.82;;;;;;;-148.56;100.00;61375.16;5001729;28;20036;-32
2021/07/28 11:16:33;;;;;;;21.52;6.50;;;;;;;-148.56;100.00;61375.16;5000534;28;20380;-35
2021/07/28 11:19:57;;;;;;;23.25;7.43;;;;;;;-148.56;100.00;61375.16;4997814;28;20103;-31
2021/07/28 11:23:24;;;;;;;23.70;7.60;;;;;;;-148.56;100.00;61375.16;4986351;28;20048;-30
2021/07/28 11:26:49;;;;;;;21.65;7.15;;;;;;;-148.56;100.00;61375.16;4989227;28;20728;-33
2021/07/28 11:30:14;;;;;;;15.02;6.28;;;;;;;-148.56;100.00;61375.16;4990014;28;20041;-33
2021/07/28 11:33:39;;;;;;;18.65;6.43;;;;;;;-148.56;100.00;61375.16;4990089;28;20113;-33
2021/07/28 11:37:03;;;;;;;13.30;5.60;;;;;;;-148.56;100.00;61375.16;4988361;28;20034;-32
2021/07/28 11:40:46;;;;;;;15.65;6.10;;;;;;;-148.56;100.00;61375.16;4985107;28;20404;-32
2021/07/28 11:44:19;;;;;;;15.15;5.50;;;;;;;-148.56;100.00;61375.16;4984053;28;20018;-32
2021/07/28 11:47:50;;;;;;;17.55;5.82;;;;;;;-148.56;100.00;61375.16;4983228;28;20073;-32
2021/07/28 11:51:16;;;;;;;18.02;6.05;;;;;;;-148.56;100.00;61375.16;4978283;28;20025;-30
2021/07/28 11:54:40;;;;;;;12.48;5.30;;;;;;;-148.56;100.00;61375.16;4974219;28;20550;-32
2021/07/28 11:58:05;;;;;;;22.40;5.53;;;;;;;-148.56;100.00;61375.16;4975883;28;20038;-31
2021/07/28 12:01:32;;;;;;;11.63;4.68;;;;;;;-148.56;100.00;61375.16;4986329;28;21125;-31
2021/07/28 12:05:03;;;;;;;14.43;5.15;;;;;;;-148.56;100.00;61375.16;4972238;28;20113;-34
2021/07/28 12:08:33;;;;;;;9.07;4.40;;;;;;;-148.56;100.00;61375.16;4976384;28;20085;-31
2021/07/28 12:12:04;;;;;;;13.13;4.82;;;;;;;-148.56;100.00;61375.16;4977454;28;20461;-34
2021/07/28 12:15:29;;;;;;;7.35;4.10;;;;;;;-148.56;100.00;61375.16;4990005;28;20088;-31
2021/07/28 12:18:53;;;;;;;10.00;4.07;;;;;;;-148.56;100.00;61375.16;4975226;28;20102;-29
2021/07/28 12:22:24;;;;;;;14.30;4.22;;;;;;;-148.56;100.00;61375.16;4975768;28;20043;-33
2021/07/28 12:25:48;;;;;;;23.77;13.40;;;;;;;-148.56;100.00;61375.16;4992279;28;20038;-32
2021/07/28 12:29:30;;;;;;;115.40;53.47;;;;;;;-148.56;100.00;61375.16;4974538;28;20404;-29
2021/07/28 12:33:06;;;;;;;237.65;115.70;;;;;;;-148.56;100.00;61375.16;4979778;28;20041;-29
2021/07/28 12:36:34;;;;;;;271.92;135.27;;;;;;;-148.56;100.00;61375.16;4973950;28;20030;-33
2021/07/28 12:40:00;;;;;;;288.27;145.23;;;;;;;-148.56;100.00;61375.16;4974333;28;20056;-32
2021/07/28 12:43:28;;;;;;;299.00;150.13;;;;;;;-148.56;100.00;61375.16;4977508;28;20632;-31
2021/07/28 12:46:53;;;;;;;323.88;161.40;;;;;;;-148.56;100.00;61375.16;4976948;28;20030;-32
2021/07/28 12:50:16;;;;;;;322.15;162.45;;;;;;;-148.56;100.00;61375.16;4980249;28;20034;-32
2021/07/28 12:53:40;;;;;;;299.25;151.07;;;;;;;-148.56;100.00;61375.16;4978269;28;20019;-31
2021/07/28 12:57:04;;;;;;;290.98;150.50;;;;;;;-148.56;100.00;61375.16;4979492;28;20459;-32
2021/07/28 13:00:28;;;;;;;261.42;133.68;;;;;;;-148.56;100.00;61375.16;4976574;28;20042;-32
2021/07/28 13:03:54;;;;;;;195.15;99.93;;;;;;;-148.56;100.00;61375.16;4978296;28;20034;-30
2021/07/28 13:07:31;;;;;;;171.23;88.07;;;;;;;-148.56;100.00;61375.16;4981175;28;20046;-32
2021/07/28 13:10:55;;;;;;;173.82;92.05;;;;;;;-148.56;100.00;61375.16;4984873;28;20038;-32
2021/07/28 13:14:19;;;;;;;59.65;35.30;;;;;;;-148.56;100.00;61375.16;4990019;28;20022;-31
2021/07/28 13:17:43;;;;;;;67.00;36.35;;;;;;;-148.56;100.00;61375.16;4983116;28;20034;-31
2021/07/28 13:21:07;;;;;;;57.40;32.13;;;;;;;-148.56;100.00;61375.16;4982746;28;20092;-32
2021/07/28 13:24:31;;;;;;;48.55;26.98;;;;;;;-148.56;100.00;61375.16;4989809;28;20113;-31
2021/07/28 13:27:57;;;;;;;46.63;25.25;;;;;;;-148.56;100.00;61375.16;4984057;28;20947;-33
2021/07/28 13:31:21;;;;;;;40.90;22.50;;;;;;;-148.56;100.00;61375.16;4982227;28;20101;-34
2021/07/28 13:34:45;;;;;;;32.47;20.30;;;;;;;-148.56;100.00;61375.16;4993460;28;20485;-35
2021/07/28 13:38:09;;;;;;;34.95;19.73;;;;;;;-148.56;100.00;61375.16;4982657;28;20037;-33
2021/07/28 13:41:33;;;;;;;24.80;15.75;;;;;;;-148.56;100.00;61375.16;4984552;28;20166;-34
2021/07/28 13:44:57;;;;;;;24.38;15.30;;;;;;;-148.56;100.00;61375.16;4988894;28;20038;-32
2021/07/28 13:47:58;;;;;;;26.83;14.90;;;;;;;-148.56;100.00;61375.16;4978865;28;20029;-38
2021/07/28 13:51:22;;;;;;;21.30;12.68;;;;;;;-148.56;100.00;61375.16;4979545;28;20042;-34
2021/07/28 13:54:46;;;;;;;20.20;11.88;;;;;;;-148.56;100.00;61375.16;4981011;28;20030;-34
2021/07/28 13:57:58;;;;;;;20.95;12.50;;;;;;;-148.56;100.00;61375.16;4977118;28;20810;-31
2021/07/28 14:01:23;;;;;;;;;;;;;;;-148.56;100.00;61375.16;4979452;28;20409;-31
2021/07/28 14:04:47;;;;;;;15.48;10.05;;;;;;;-148.56;100.00;61375.16;4979532;28;20399;-31
2021/07/28 14:08:11;;;;;;;14.75;9.23;;;;;;;-148.56;100.00;61375.16;4975372;28;20592;-31
2021/07/28 14:11:36;;;;;;;13.80;9.07;;;;;;;-148.56;100.00;61375.16;4978351;28;20077;-30
2021/07/28 14:15:00;;;;;;;14.10;7.40;;;;;;;-148.56;100.00;61375.16;4984679;28;20655;-32
2021/07/28 14:18:04;;;;;;;15.32;7.93;;;;;;;-148.56;100.00;61375.16;4987735;28;20124;-31
2021/07/28 14:20:30;;;;;;;8.43;6.80;;;;;;;-148.56;100.00;61375.16;4986489;28;20488;-31
2021/07/28 14:23:53;;;;;;;12.18;7.25;;;;;;;-148.56;100.00;61375.16;4976966;28;20052;-32
2021/07/28 14:27:17;;;;;;;10.55;6.97;;;;;;;-148.56;100.00;61375.16;4976696;28;20145;-33
2021/07/28 14:30:41;;;;;;;12.05;6.63;;;;;;;-148.56;100.00;61375.16;4978176;28;20034;-32
2021/07/28 14:34:05;;;;;;;7.97;5.55;;;;;;;-148.56;100.00;61375.16;4975714;28;20026;-32
2021/07/28 14:37:29;;;;;;;8.63;5.50;;;;;;;-148.56;100.00;61375.16;4981233;28;20736;-33
2021/07/28 14:40:53;;;;;;;10.45;5.75;;;;;;;-148.56;100.00;61375.16;4977077;28;20502;-32
2021/07/28 14:44:17;;;;;;;9.68;5.50;;;;;;;-148.56;100.00;61375.16;4977834;28;20030;-30
2021/07/28 14:47:42;;;;;;;9.05;5.15;;;;;;;-148.56;100.00;61375.16;4978284;28;20061;-31
2021/07/28 14:51:07;;;;;;;6.55;5.00;;;;;;;-148.56;100.00;61375.16;4984695;28;20069;-31
2021/07/28 14:54:30;;;;;;;6.70;4.88;;;;;;;-148.56;100.00;61375.16;4992075;28;20034;-32
2021/07/28 14:57:54;;;;;;;6.30;4.55;;;;;;;-148.56;100.00;61375.16;4975817;28;20049;-32
2021/07/28 15:01:19;;;;;;;7.50;5.32;;;;;;;-148.56;100.00;61375.16;4976290;28;20030;-33
2021/07/28 15:04:43;;;;;;;8.82;5.13;;;;;;;-148.56;100.00;61375.16;4975810;28;20677;-32
2021/07/28 15:07:08;;;;;;;8.68;5.45;;;;;;;-148.56;100.00;61375.16;4982249;28;20034;-31
2021/07/28 15:09:42;;;;;;;6.63;4.72;;;;;;;-148.56;100.00;61375.16;4976959;28;20045;-32
2021/07/28 15:13:06;;;;;;;8.20;5.10;;;;;;;-148.56;100.00;61375.16;4978280;28;20038;-30
2021/07/28 15:15:37;;;;;;;7.63;4.85;;;;;;;-148.56;100.00;61375.16;4976635;28;20038;-32
2021/07/28 15:18:59;;;;;;;7.72;4.88;;;;;;;-148.56;100.00;61375.16;4977243;28;20026;-32
2021/07/28 15:22:23;;;;;;;;;;;;;;;-148.56;100.00;61375.16;4993916;28;20045;-33
2021/07/28 15:25:47;;;;;;;7.38;5.00;;;;;;;-148.56;100.00;61375.16;4977264;28;19922;-31